Time;durP1;ratioP1;P1;durP2;ratioP2;P2;SDS_P1;SDS_P2;PMS_P1;PMS_P2;Temp;Humidity;BMP_temperature;BMP_pressure;BME280_temperature;BME280_humidity;BME280_pressure;Samples;Min_cycle;Max_cycle;Signal;HPM_P1;HPM_P2
2023/09/22 00:00:57;;;;;;;5.07;3.77;;;14.10;99.90;;;;;;5094634;28;20211;-70
2023/09/22 00:03:23;;;;;;;3.40;3.00;;;14.20;99.90;;;;;;5094657;28;20510;-71
2023/09/22 00:05:49;;;;;;;8.77;3.40;;;14.20;99.90;;;;;;5094576;28;20168;-71
2023/09/22 00:08:15;;;;;;;5.67;2.60;;;14.30;99.90;;;;;;5094477;28;20176;-71
2023/09/22 00:10:40;;;;;;;4.27;2.47;;;14.30;99.90;;;;;;5094661;28;20290;-70
2023/09/22 00:13:06;;;;;;;5.00;2.43;;;14.30;99.90;;;;;;5094126;28;20691;-70
2023/09/22 00:15:34;;;;;;;4.80;2.63;;;14.40;99.90;;;;;;5094578;28;20258;-71
2023/09/22 00:18:00;;;;;;;4.50;2.77;;;14.40;99.90;;;;;;5094299;28;20646;-70
2023/09/22 00:20:26;;;;;;;5.77;2.60;;;14.50;99.90;;;;;;5093894;28;20227;-71
2023/09/22 00:22:52;;;;;;;3.70;2.60;;;14.40;99.90;;;;;;5093585;28;20168;-71
2023/09/22 00:25:18;;;;;;;3.60;2.50;;;14.50;99.90;;;;;;5094358;28;20268;-71
2023/09/22 00:27:43;;;;;;;3.27;2.43;;;14.50;99.90;;;;;;5092474;28;20309;-71
2023/09/22 00:30:10;;;;;;;5.30;2.67;;;14.50;99.90;;;;;;5094424;28;20186;-71
2023/09/22 00:32:36;;;;;;;5.17;3.10;;;14.60;99.90;;;;;;5094107;28;20261;-71
2023/09/22 00:35:03;;;;;;;4.03;2.90;;;14.60;99.90;;;;;;5094073;28;20225;-71
2023/09/22 00:37:29;;;;;;;6.17;3.00;;;14.60;99.90;;;;;;5094057;28;20167;-70
2023/09/22 00:39:55;;;;;;;4.50;3.10;;;14.60;99.90;;;;;;5093749;28;20195;-71
2023/09/22 00:42:22;;;;;;;5.33;3.37;;;14.60;99.90;;;;;;5093907;28;20164;-71
2023/09/22 00:44:47;;;;;;;3.90;3.20;;;14.60;99.90;;;;;;5092749;28;20226;-71
2023/09/22 00:47:14;;;;;;;6.60;3.10;;;14.60;99.90;;;;;;5093762;28;20215;-70
2023/09/22 00:49:42;;;;;;;7.30;3.57;;;14.60;99.90;;;;;;5093947;28;20255;-70
2023/09/22 00:52:09;;;;;;;5.20;3.23;;;14.60;99.90;;;;;;5093822;28;20170;-69
2023/09/22 00:54:35;;;;;;;6.37;3.73;;;14.60;99.90;;;;;;5093318;28;20172;-69
2023/09/22 00:57:04;;;;;;;6.63;3.60;;;14.50;99.90;;;;;;5093280;28;20178;-69
2023/09/22 00:59:30;;;;;;;5.10;3.90;;;14.50;99.90;;;;;;5093720;28;20211;-69
2023/09/22 01:01:56;;;;;;;6.27;3.80;;;14.50;99.90;;;;;;5093504;28;20235;-70
2023/09/22 01:04:22;;;;;;;6.33;3.43;;;14.50;99.90;;;;;;5093612;28;20175;-70
2023/09/22 01:06:47;;;;;;;7.73;3.77;;;14.40;99.90;;;;;;5093522;28;20560;-70
2023/09/22 01:09:15;;;;;;;5.83;3.60;;;14.50;99.90;;;;;;5093299;28;20164;-70
2023/09/22 01:11:41;;;;;;;5.70;3.93;;;14.40;99.90;;;;;;5093562;28;20179;-70
2023/09/22 01:14:07;;;;;;;6.27;4.17;;;14.50;99.90;;;;;;5093661;28;20175;-70
2023/09/22 01:16:32;;;;;;;10.07;3.53;;;14.50;99.90;;;;;;5093530;28;20165;-70
2023/09/22 01:18:58;;;;;;;5.10;4.00;;;14.40;99.90;;;;;;5093496;28;20176;-70
2023/09/22 01:21:31;;;;;;;6.80;4.17;;;14.40;99.90;;;;;;5091645;28;20227;-69
2023/09/22 01:24:00;;;;;;;5.07;4.00;;;14.40;99.90;;;;;;5091930;28;20187;-69
2023/09/22 01:26:27;;;;;;;6.73;4.53;;;14.40;99.90;;;;;;5093308;28;20168;-69
2023/09/22 01:28:53;;;;;;;4.83;3.83;;;14.50;99.90;;;;;;5093267;28;20164;-70
2023/09/22 01:31:18;;;;;;;6.93;4.13;;;14.50;99.90;;;;;;5093343;28;20650;-71
2023/09/22 01:33:47;;;;;;;3.97;3.50;;;14.50;99.90;;;;;;5092353;28;20659;-71
2023/09/22 01:36:16;;;;;;;4.67;3.50;;;14.40;99.90;;;;;;5098654;28;20182;-72
2023/09/22 01:38:42;;;;;;;7.37;4.17;;;14.40;99.90;;;;;;5099516;28;20176;-70
2023/09/22 01:41:07;;;;;;;8.37;3.90;;;14.50;99.90;;;;;;5099921;28;20268;-70
2023/09/22 01:43:35;;;;;;;6.40;3.70;;;14.50;99.90;;;;;;5100038;28;20182;-70
2023/09/22 01:46:00;;;;;;;6.10;3.70;;;14.60;99.90;;;;;;5100055;28;20160;-70
2023/09/22 01:48:26;;;;;;;5.13;3.77;;;14.60;99.90;;;;;;5099795;28;20182;-70
2023/09/22 01:50:52;;;;;;;7.73;3.50;;;14.60;99.90;;;;;;5099764;28;20168;-69
2023/09/22 01:53:18;;;;;;;7.63;3.60;;;14.70;99.90;;;;;;5099637;28;20172;-70
2023/09/22 01:55:43;;;;;;;6.60;3.67;;;14.70;99.90;;;;;;5099748;28;20523;-71
2023/09/22 01:58:10;;;;;;;6.90;3.43;;;14.80;99.90;;;;;;5099753;28;20221;-70
2023/09/22 02:00:36;;;;;;;4.93;3.00;;;14.80;99.90;;;;;;5099670;28;20291;-70
2023/09/22 02:03:03;;;;;;;8.30;3.00;;;14.80;99.90;;;;;;5099706;28;20254;-70
2023/09/22 02:05:29;;;;;;;4.37;2.90;;;14.80;99.90;;;;;;5099671;28;20172;-70
2023/09/22 02:07:57;;;;;;;4.97;2.50;;;14.90;99.90;;;;;;5099137;28;20263;-70
2023/09/22 02:10:23;;;;;;;3.67;2.50;;;14.90;99.90;;;;;;5099709;28;20224;-71
2023/09/22 02:12:48;;;;;;;3.07;2.23;;;14.90;99.90;;;;;;5099824;28;20164;-70
2023/09/22 02:15:14;;;;;;;4.93;2.20;;;14.90;99.90;;;;;;5099558;28;20639;-70
2023/09/22 02:17:41;;;;;;;3.73;2.30;;;14.90;99.90;;;;;;5099623;28;20167;-71
2023/09/22 02:22:47;;;;;;;4.00;2.40;;;14.90;99.90;;;;;;5099563;28;20195;-69
2023/09/22 02:25:16;;;;;;;1.83;1.60;;;14.90;99.90;;;;;;5099671;28;20236;-70
2023/09/22 02:27:43;;;;;;;2.77;2.20;;;15.00;99.90;;;;;;5099631;28;20168;-70
2023/09/22 02:30:10;;;;;;;3.17;1.83;;;14.90;99.90;;;;;;5099428;28;20179;-70
2023/09/22 02:32:37;;;;;;;2.77;2.20;;;14.90;99.90;;;;;;5099959;28;20271;-70
2023/09/22 02:35:03;;;;;;;3.60;2.50;;;15.00;99.90;;;;;;5099245;28;20172;-70
2023/09/22 02:37:29;;;;;;;4.67;1.90;;;14.90;99.90;;;;;;5099123;28;20642;-70
2023/09/22 02:39:55;;;;;;;5.07;2.40;;;15.00;99.90;;;;;;5099488;28;20171;-70
2023/09/22 02:42:21;;;;;;;5.73;2.20;;;15.00;99.90;;;;;;5099283;28;20587;-71
2023/09/22 02:44:46;;;;;;;4.30;2.47;;;15.00;99.90;;;;;;5099235;28;20176;-70
2023/09/22 02:47:13;;;;;;;3.73;2.47;;;15.00;99.90;;;;;;5095539;28;20345;-70
2023/09/22 02:49:38;;;;;;;3.03;1.90;;;15.00;99.90;;;;;;5096131;28;20555;-71
2023/09/22 02:52:04;;;;;;;3.27;2.10;;;14.90;99.90;;;;;;5095719;28;20168;-70
2023/09/22 02:54:30;;;;;;;2.87;2.03;;;15.00;99.90;;;;;;5095919;28;20646;-70
2023/09/22 02:56:55;;;;;;;2.37;1.90;;;15.00;99.90;;;;;;5095649;28;20183;-70
2023/09/22 02:59:22;;;;;;;4.10;2.00;;;15.00;99.90;;;;;;5095907;28;20721;-71
2023/09/22 03:01:49;;;;;;;5.10;1.90;;;14.90;99.90;;;;;;5095896;28;20216;-70
2023/09/22 03:04:15;;;;;;;5.33;2.10;;;14.90;99.90;;;;;;5095721;28;20176;-69
2023/09/22 03:06:41;;;;;;;5.30;2.57;;;14.80;99.90;;;;;;5095392;28;20191;-70
2023/09/22 03:09:06;;;;;;;5.70;2.27;;;14.80;99.90;;;;;;5095566;28;20317;-70
2023/09/22 03:11:36;;;;;;;3.67;2.30;;;14.80;99.90;;;;;;5095614;28;20176;-69
2023/09/22 03:14:03;;;;;;;4.70;2.10;;;14.80;99.90;;;;;;5095349;28;20176;-70
2023/09/22 03:16:29;;;;;;;3.83;2.13;;;14.80;99.90;;;;;;5095552;28;20168;-69
2023/09/22 03:18:55;;;;;;;4.37;1.80;;;14.80;99.90;;;;;;5095294;28;20692;-69
2023/09/22 03:21:22;;;;;;;5.03;2.43;;;14.80;99.90;;;;;;5094288;28;20231;-70
2023/09/22 03:23:54;;;;;;;6.83;2.50;;;14.70;99.90;;;;;;5095595;28;20558;-70
2023/09/22 03:26:20;;;;;;;4.50;2.10;;;14.80;99.90;;;;;;5095407;28;20180;-71
2023/09/22 03:28:47;;;;;;;3.10;1.97;;;14.70;99.90;;;;;;5095184;28;20271;-70
2023/09/22 03:31:12;;;;;;;5.17;2.10;;;14.60;99.90;;;;;;5095020;28;20255;-70
2023/09/22 03:33:41;;;;;;;2.60;2.37;;;14.60;99.90;;;;;;5095018;28;20203;-70
2023/09/22 03:36:10;;;;;;;4.33;2.40;;;14.60;99.90;;;;;;5094734;28;20183;-70
2023/09/22 03:38:39;;;;;;;2.30;2.10;;;14.50;99.90;;;;;;5095065;28;20183;-70
2023/09/22 03:41:05;;;;;;;4.20;2.23;;;14.40;99.90;;;;;;5094941;28;20529;-69
2023/09/22 03:43:31;;;;;;;3.23;2.27;;;14.30;99.90;;;;;;5094942;28;20202;-70
2023/09/22 03:45:56;;;;;;;5.60;2.73;;;14.30;99.90;;;;;;5094696;28;20216;-71
2023/09/22 03:48:22;;;;;;;4.60;2.27;;;14.30;99.90;;;;;;5094409;28;20221;-71
2023/09/22 03:50:48;;;;;;;4.73;2.67;;;14.30;99.90;;;;;;5094540;28;20260;-71
2023/09/22 03:53:14;;;;;;;8.63;3.17;;;14.30;99.90;;;;;;5094022;28;20591;-70
2023/09/22 03:55:40;;;;;;;5.07;2.70;;;14.30;99.90;;;;;;5094327;28;20176;-70
2023/09/22 03:58:06;;;;;;;5.20;2.47;;;14.30;99.90;;;;;;5092978;28;20175;-69
2023/09/22 04:00:32;;;;;;;5.57;2.90;;;14.30;99.90;;;;;;5094528;28;20212;-71
2023/09/22 04:02:59;;;;;;;4.67;2.73;;;14.40;99.90;;;;;;5093815;28;20172;-71
2023/09/22 04:05:26;;;;;;;5.20;3.10;;;14.40;99.90;;;;;;5093975;28;20172;-70
2023/09/22 04:07:54;;;;;;;3.77;2.97;;;14.40;99.90;;;;;;5094573;28;20198;-70
2023/09/22 04:10:20;;;;;;;4.60;3.07;;;14.40;99.90;;;;;;5093830;28;20184;-71
2023/09/22 04:12:45;;;;;;;6.40;2.60;;;14.40;99.90;;;;;;5094324;28;20270;-70
2023/09/22 04:15:11;;;;;;;3.60;2.53;;;14.50;99.90;;;;;;5093947;28;20251;-70
2023/09/22 04:17:38;;;;;;;4.23;2.90;;;14.50;99.90;;;;;;5093652;28;20608;-70
2023/09/22 04:20:08;;;;;;;5.67;2.67;;;14.40;99.90;;;;;;5093790;28;20232;-70
2023/09/22 04:22:37;;;;;;;7.47;2.73;;;14.40;99.90;;;;;;5094179;28;20190;-69
2023/09/22 04:25:09;;;;;;;5.70;2.80;;;14.40;99.90;;;;;;5094174;28;20225;-69
2023/09/22 04:27:40;;;;;;;3.40;2.20;;;14.40;99.90;;;;;;5093805;28;20170;-71
2023/09/22 04:30:07;;;;;;;5.10;2.40;;;14.40;99.90;;;;;;5093867;28;20206;-71
2023/09/22 04:32:35;;;;;;;5.30;2.10;;;14.40;99.90;;;;;;5093183;28;20169;-70
2023/09/22 04:35:00;;;;;;;6.37;2.30;;;14.30;99.90;;;;;;5093795;28;20243;-70
2023/09/22 04:37:26;;;;;;;4.70;2.23;;;14.40;99.90;;;;;;5093464;28;20598;-69
2023/09/22 04:39:52;;;;;;;4.03;2.40;;;14.40;99.90;;;;;;5093722;28;20242;-71
2023/09/22 04:42:18;;;;;;;6.30;3.00;;;14.40;99.90;;;;;;5093294;28;20174;-71
2023/09/22 04:44:45;;;;;;;3.10;2.77;;;14.30;99.90;;;;;;5093822;28;20258;-71
2023/09/22 04:47:10;;;;;;;3.33;2.43;;;14.20;99.90;;;;;;5091908;28;20207;-71
2023/09/22 04:49:36;;;;;;;3.67;2.77;;;14.10;99.90;;;;;;5093500;28;20207;-70
2023/09/22 04:52:05;;;;;;;5.23;2.83;;;14.00;99.90;;;;;;5093457;28;20184;-70
2023/09/22 04:54:30;;;;;;;2.73;2.30;;;14.00;99.90;;;;;;5093221;28;20207;-71
2023/09/22 04:56:56;;;;;;;2.90;2.33;;;13.90;99.90;;;;;;5092805;28;20559;-71
2023/09/22 04:59:23;;;;;;;4.70;2.40;;;13.80;99.90;;;;;;5093321;28;20180;-71
2023/09/22 05:01:49;;;;;;;2.17;1.97;;;13.80;99.90;;;;;;5092937;28;20204;-70
2023/09/22 05:04:15;;;;;;;5.60;2.30;;;13.70;99.90;;;;;;5092999;28;20156;-72
2023/09/22 05:06:43;;;;;;;4.53;2.10;;;13.70;99.90;;;;;;5091654;28;20172;-71
2023/09/22 05:09:09;;;;;;;6.27;2.10;;;13.70;99.90;;;;;;5091834;28;20221;-70
2023/09/22 05:11:35;;;;;;;4.50;2.00;;;13.60;99.90;;;;;;5092955;28;20179;-70
2023/09/22 05:14:01;;;;;;;3.40;2.03;;;13.60;99.90;;;;;;5093003;28;20168;-70
2023/09/22 05:16:26;;;;;;;5.60;2.30;;;13.60;99.90;;;;;;5092667;28;20175;-70
2023/09/22 05:18:52;;;;;;;7.63;2.10;;;13.60;99.90;;;;;;5092704;28;20200;-71
2023/09/22 05:21:18;;;;;;;4.13;1.93;;;13.50;99.90;;;;;;5092249;28;20728;-71
2023/09/22 05:23:43;;;;;;;3.10;1.83;;;13.50;99.90;;;;;;5092526;28;20210;-69
2023/09/22 05:26:09;;;;;;;5.13;1.77;;;13.50;99.90;;;;;;5092572;28;20176;-71
2023/09/22 05:28:36;;;;;;;8.50;2.37;;;13.40;99.90;;;;;;5092516;28;20605;-70
2023/09/22 05:31:05;;;;;;;4.97;1.97;;;13.40;99.90;;;;;;5092265;28;20186;-70
2023/09/22 05:33:35;;;;;;;4.70;2.23;;;13.40;99.90;;;;;;5091550;28;20168;-72
2023/09/22 05:36:01;;;;;;;3.53;2.10;;;13.30;99.90;;;;;;5092288;28;20210;-71
2023/09/22 05:38:27;;;;;;;3.17;1.67;;;13.30;99.90;;;;;;5092283;28;20695;-71
2023/09/22 05:40:52;;;;;;;4.70;1.97;;;13.40;99.90;;;;;;5092272;28;20286;-70
2023/09/22 05:43:22;;;;;;;4.10;2.10;;;13.40;99.90;;;;;;5090962;28;20237;-71
2023/09/22 05:45:53;;;;;;;4.97;2.37;;;13.30;99.90;;;;;;5091856;28;20248;-71
2023/09/22 05:48:19;;;;;;;4.40;2.10;;;13.40;99.90;;;;;;5092054;28;20172;-71
2023/09/22 05:50:55;;;;;;;7.03;2.27;;;13.40;99.90;;;;;;5091180;28;20176;-70
2023/09/22 05:53:21;;;;;;;3.77;2.13;;;13.40;99.90;;;;;;5092270;28;20203;-71
2023/09/22 05:55:46;;;;;;;2.33;1.70;;;13.50;99.90;;;;;;5092038;28;20219;-71
2023/09/22 05:58:13;;;;;;;5.83;2.00;;;13.60;99.90;;;;;;5092189;28;20208;-72
2023/09/22 06:00:39;;;;;;;4.53;2.27;;;13.70;99.90;;;;;;5090655;28;20218;-72
2023/09/22 06:03:05;;;;;;;5.97;1.97;;;13.80;99.90;;;;;;5090322;28;20191;-71
2023/09/22 06:05:31;;;;;;;2.80;1.60;;;13.80;99.90;;;;;;5090996;28;20196;-72
2023/09/22 06:07:59;;;;;;;7.87;2.50;;;13.90;99.90;;;;;;5091193;28;20533;-70
2023/09/22 06:10:24;;;;;;;7.47;2.70;;;14.00;99.90;;;;;;5090829;28;20635;-71
2023/09/22 06:12:50;;;;;;;12.10;3.10;;;14.10;99.90;;;;;;5092015;28;20254;-70
2023/09/22 06:15:16;;;;;;;11.43;2.70;;;14.20;99.90;;;;;;5090809;28;20175;-71
2023/09/22 06:17:41;;;;;;;4.73;2.37;;;14.30;99.90;;;;;;5092188;28;20176;-71
2023/09/22 06:20:13;;;;;;;9.40;2.87;;;14.30;99.90;;;;;;5091668;28;20219;-73
2023/09/22 06:22:40;;;;;;;7.17;2.30;;;14.40;99.90;;;;;;5094477;28;20505;-70
2023/09/22 06:25:08;;;;;;;7.83;2.70;;;14.50;99.90;;;;;;5095689;28;20178;-71
2023/09/22 06:27:33;;;;;;;2.40;1.97;;;14.50;99.90;;;;;;5095490;28;20577;-71
2023/09/22 06:30:00;;;;;;;6.50;2.50;;;14.60;99.90;;;;;;5095188;28;20180;-70
2023/09/22 06:32:26;;;;;;;8.77;2.63;;;14.70;99.90;;;;;;5095115;28;20172;-70
2023/09/22 06:34:53;;;;;;;7.07;2.57;;;14.90;99.80;;;;;;5095414;28;20184;-72
2023/09/22 06:37:19;;;;;;;3.00;2.40;;;15.10;99.90;;;;;;5095507;28;20251;-71
2023/09/22 06:39:46;;;;;;;3.27;2.50;;;15.40;78.10;;;;;;5095274;28;20271;-73
2023/09/22 06:42:12;;;;;;;5.80;2.67;;;15.60;68.30;;;;;;5095794;28;20271;-72
2023/09/22 06:44:38;;;;;;;6.37;2.40;;;15.90;56.40;;;;;;5094416;28;20586;-72
2023/09/22 06:47:05;;;;;;;7.20;2.07;;;16.20;51.00;;;;;;5094528;28;20168;-73
2023/09/22 06:49:33;;;;;;;6.97;1.90;;;17.20;29.80;;;;;;5094892;28;20172;-74
2023/09/22 06:51:59;;;;;;;6.82;2.50;;;18.40;3.70;;;;;;5095492;28;20160;-74
2023/09/22 06:54:26;;;;;;;7.28;2.35;;;19.20;1.00;;;;;;5095015;28;20320;-75
2023/09/22 06:56:52;;;;;;;2.08;1.73;;;19.70;1.00;;;;;;5094874;28;20653;-74
2023/09/22 06:59:22;;;;;;;9.05;2.63;;;20.50;1.00;;;;;;5095070;28;20543;-74
2023/09/22 07:01:48;;;;;;;4.18;1.73;;;21.80;1.00;;;;;;5093569;28;20215;-74
2023/09/22 07:04:14;;;;;;;4.65;1.63;;;21.80;1.00;;;;;;5094528;28;20160;-75
2023/09/22 07:06:40;;;;;;;3.38;1.70;;;21.50;1.00;;;;;;5094944;28;20172;-75
2023/09/22 07:09:09;;;;;;;3.30;1.98;;;21.10;1.00;;;;;;5094702;28;20160;-75
2023/09/22 07:11:40;;;;;;;8.02;2.42;;;21.50;1.00;;;;;;5093419;28;20183;-75
2023/09/22 07:14:07;;;;;;;4.50;1.88;;;21.60;1.00;;;;;;5093928;28;20273;-74
2023/09/22 07:16:32;;;;;;;3.95;2.25;;;22.00;1.00;;;;;;5095015;28;20183;-74
2023/09/22 07:18:59;;;;;;;4.60;2.03;;;21.90;1.00;;;;;;5094055;28;20164;-75
2023/09/22 07:21:25;;;;;;;2.83;2.10;;;21.90;1.00;;;;;;5094356;28;20219;-73
2023/09/22 07:23:54;;;;;;;11.85;2.55;;;21.50;1.00;;;;;;5094830;28;20601;-74
2023/09/22 07:26:20;;;;;;;7.78;2.60;;;21.60;1.00;;;;;;5094191;28;20183;-75
2023/09/22 07:28:46;;;;;;;2.92;2.20;;;22.20;1.00;;;;;;5094583;28;20251;-74
2023/09/22 07:31:18;;;;;;;4.93;2.17;;;22.60;1.00;;;;;;5093535;28;20195;-74
2023/09/22 07:33:44;;;;;;;6.65;2.30;;;22.80;99.90;;;;;;5093909;28;20309;-72
2023/09/22 07:36:10;;;;;;;4.25;1.88;;;22.40;1.00;;;;;;5094271;28;20172;-74
2023/09/22 07:38:36;;;;;;;5.00;2.30;;;21.60;1.00;;;;;;5094545;28;20172;-74
2023/09/22 07:41:02;;;;;;;6.00;1.90;;;21.70;1.00;;;;;;5092717;28;20257;-73
2023/09/22 07:43:29;;;;;;;4.15;1.92;;;21.30;1.00;;;;;;5094376;28;20172;-74
2023/09/22 07:45:56;;;;;;;3.80;1.73;;;20.40;1.00;;;;;;5094172;28;20244;-72
2023/09/22 07:48:21;;;;;;;2.97;1.88;;;19.80;1.00;;;;;;5094272;28;20171;-72
2023/09/22 07:50:47;;;;;;;2.90;1.67;;;19.10;1.00;;;;;;5094725;28;20642;-75
2023/09/22 07:53:13;;;;;;;4.43;2.08;;;19.90;1.00;;;;;;5094138;28;20631;-75
2023/09/22 07:55:40;;;;;;;4.10;1.80;;;20.90;1.00;;;;;;5093708;28;20691;-74
2023/09/22 07:58:06;;;;;;;6.28;1.35;;;22.40;1.00;;;;;;5092690;28;20194;-74
2023/09/22 08:00:33;;;;;;;5.50;2.25;;;23.20;99.90;;;;;;5094090;28;20231;-74
2023/09/22 08:03:03;;;;;;;5.57;1.70;;;24.10;1.00;;;;;;5094009;28;20313;-75
2023/09/22 08:05:28;;;;;;;3.67;1.40;;;24.90;1.00;;;;;;5094405;28;20547;-74
2023/09/22 08:07:54;;;;;;;4.80;1.83;;;25.50;74.70;;;;;;5093832;28;20167;-74
2023/09/22 08:10:22;;;;;;;6.85;1.90;;;26.40;86.20;;;;;;5092211;28;20526;-74
2023/09/22 08:12:49;;;;;;;5.00;1.60;;;26.20;84.60;;;;;;5093948;28;20251;-74
2023/09/22 08:15:15;;;;;;;3.75;1.33;;;26.20;85.00;;;;;;5092706;28;20525;-74
2023/09/22 08:17:44;;;;;;;2.97;1.70;;;27.10;77.60;;;;;;5093901;28;20191;-75
2023/09/22 08:20:12;;;;;;;5.25;1.50;;;26.40;81.90;;;;;;5092313;28;20715;-74
2023/09/22 08:22:40;;;;;;;4.28;1.77;;;26.20;79.60;;;;;;5094048;28;20639;-76
2023/09/22 08:25:08;;;;;;;7.55;1.80;;;26.60;79.30;;;;;;5093277;28;20164;-74
2023/09/22 08:27:35;;;;;;;3.00;1.40;;;26.50;78.60;;;;;;5094005;28;20259;-74
2023/09/22 08:30:10;;;;;;;6.60;1.73;;;25.50;79.70;;;;;;5093847;28;20175;-74
2023/09/22 08:32:41;;;;;;;4.47;1.42;;;26.30;79.40;;;;;;5093363;28;20177;-75
2023/09/22 08:35:08;;;;;;;1.63;1.48;;;26.00;77.30;;;;;;5093814;28;20168;-73
2023/09/22 08:37:36;;;;;;;7.30;1.70;;;26.00;77.40;;;;;;5091932;28;20167;-76
2023/09/22 08:40:14;;;;;;;3.33;1.65;;;26.40;75.60;;;;;;5092981;28;20172;-75
2023/09/22 08:42:43;;;;;;;5.00;1.63;;;25.50;77.80;;;;;;5093856;28;20172;-73
2023/09/22 08:45:10;;;;;;;3.47;1.30;;;24.70;83.50;;;;;;5092752;28;20637;-73
2023/09/22 08:47:40;;;;;;;2.63;1.40;;;24.10;87.30;;;;;;5093011;28;20207;-72
2023/09/22 08:50:16;;;;;;;5.32;1.50;;;23.20;92.00;;;;;;5093258;28;20172;-74
2023/09/22 08:52:45;;;;;;;3.60;1.23;;;23.80;90.90;;;;;;5093139;28;20171;-72
2023/09/22 08:55:13;;;;;;;2.58;1.45;;;23.80;90.60;;;;;;5093026;28;20156;-72
2023/09/22 08:57:44;;;;;;;3.13;1.70;;;22.20;93.30;;;;;;5092912;28;20178;-71
2023/09/22 09:00:20;;;;;;;2.03;1.10;;;20.80;1.00;;;;;;5093572;28;20263;-72
2023/09/22 09:03:07;;;;;;;2.65;1.30;;;19.50;1.00;;;;;;5093406;28;20175;-72
2023/09/22 09:05:33;;;;;;;3.45;1.60;;;19.30;1.00;;;;;;5092719;28;20509;-71
2023/09/22 09:08:12;;;;;;;3.45;1.60;;;19.10;1.00;;;;;;5092466;28;20222;-72
2023/09/22 09:10:42;;;;;;;5.53;1.50;;;19.10;1.00;;;;;;5092714;28;20168;-72
2023/09/22 09:13:15;;;;;;;3.10;1.42;;;19.10;1.00;;;;;;5091195;28;20647;-73
2023/09/22 09:15:54;;;;;;;3.75;1.60;;;18.70;1.00;;;;;;5093101;28;20171;-73
2023/09/22 09:18:23;;;;;;;5.55;1.40;;;18.90;1.00;;;;;;5092293;28;20179;-73
2023/09/22 09:21:09;;;;;;;3.05;1.40;;;18.80;1.00;;;;;;5092577;28;20222;-72
2023/09/22 09:23:35;;;;;;;7.47;2.03;;;18.90;1.00;;;;;;5092036;28;20199;-71
2023/09/22 09:26:01;;;;;;;6.60;1.92;;;19.00;1.00;;;;;;5092886;28;20225;-72
2023/09/22 09:28:28;;;;;;;5.32;1.75;;;18.80;1.00;;;;;;5091381;28;20176;-72
2023/09/22 09:30:58;;;;;;;8.02;1.83;;;19.20;1.00;;;;;;5092907;28;20244;-74
2023/09/22 09:33:33;;;;;;;2.63;1.52;;;20.20;1.00;;;;;;5092925;28;20622;-74
2023/09/22 09:36:00;;;;;;;6.45;1.98;;;21.40;1.00;;;;;;5092776;28;20168;-73
2023/09/22 09:38:27;;;;;;;9.18;2.10;;;22.40;99.90;;;;;;5091944;28;20179;-74
2023/09/22 09:40:54;;;;;;;3.72;2.13;;;23.20;1.00;;;;;;5092238;28;20203;-75
2023/09/22 09:43:21;;;;;;;4.47;1.60;;;23.00;1.00;;;;;;5092894;28;20183;-74
2023/09/22 09:45:51;;;;;;;3.63;1.83;;;23.10;99.90;;;;;;5092832;28;20167;-73
2023/09/22 09:48:18;;;;;;;7.53;2.13;;;23.30;1.00;;;;;;5092047;28;20160;-73
2023/09/22 09:50:50;;;;;;;3.17;1.60;;;23.60;1.00;;;;;;5092793;28;20160;-73
2023/09/22 09:53:40;;;;;;;2.78;1.58;;;23.20;99.90;;;;;;5092314;28;20168;-75
2023/09/22 09:56:06;;;;;;;1.98;1.20;;;23.60;99.90;;;;;;5094718;28;20167;-74
2023/09/22 09:58:34;;;;;;;1.73;1.50;;;23.40;99.90;;;;;;5096407;28;20178;-73
2023/09/22 10:01:02;;;;;;;2.85;1.48;;;23.90;99.90;;;;;;5096175;28;20219;-74
2023/09/22 10:03:28;;;;;;;1.45;1.13;;;23.40;1.00;;;;;;5096736;28;20200;-75
2023/09/22 10:05:56;;;;;;;3.17;1.40;;;23.30;1.00;;;;;;5095950;28;20168;-74
2023/09/22 10:08:26;;;;;;;4.03;1.80;;;23.10;99.90;;;;;;5096398;28;20187;-74
2023/09/22 10:10:56;;;;;;;4.13;2.92;;;23.30;99.90;;;;;;5096357;28;20615;-74
2023/09/22 10:13:21;;;;;;;3.42;2.00;;;23.60;1.00;;;;;;5096134;28;20164;-73
2023/09/22 10:16:06;;;;;;;4.43;1.63;;;23.80;1.00;;;;;;5096594;28;20252;-73
2023/09/22 10:18:53;;;;;;;2.83;1.38;;;24.40;1.00;;;;;;5096257;28;20214;-73
2023/09/22 10:21:39;;;;;;;2.30;1.70;;;24.00;1.00;;;;;;5095816;28;20238;-73
2023/09/22 10:24:14;;;;;;;4.07;1.85;;;23.90;1.00;;;;;;5095763;28;20199;-75
2023/09/22 10:27:06;;;;;;;3.65;2.00;;;23.50;1.00;;;;;;5095723;28;20179;-73
2023/09/22 10:29:34;;;;;;;4.07;1.30;;;23.00;1.00;;;;;;5095993;28;20177;-72
2023/09/22 10:32:23;;;;;;;2.05;1.67;;;21.90;1.00;;;;;;5094459;28;20531;-71
2023/09/22 10:34:49;;;;;;;3.90;1.83;;;21.40;1.00;;;;;;5095929;28;20741;-72
2023/09/22 10:37:16;;;;;;;1.70;1.55;;;21.70;1.00;;;;;;5094216;28;20232;-73
2023/09/22 10:39:52;;;;;;;3.88;1.45;;;21.50;99.90;;;;;;5095291;28;20200;-73
2023/09/22 10:42:18;;;;;;;1.67;1.30;;;21.40;1.00;;;;;;5095180;28;20207;-72
2023/09/22 10:45:04;;;;;;;1.70;1.58;;;21.70;99.90;;;;;;5095885;28;20164;-72
2023/09/22 10:47:52;;;;;;;3.47;1.50;;;21.50;99.90;;;;;;5095001;28;20181;-71
2023/09/22 10:50:31;;;;;;;3.38;1.40;;;21.30;1.00;;;;;;5093391;28;20255;-72
2023/09/22 10:53:05;;;;;;;3.05;1.90;;;21.00;99.90;;;;;;5095178;28;20168;-73
2023/09/22 10:55:37;;;;;;;6.45;1.60;;;21.40;99.90;;;;;;5095361;28;20245;-72
2023/09/22 10:58:04;;;;;;;4.47;1.75;;;21.40;1.00;;;;;;5095489;28;20183;-72
2023/09/22 11:01:04;;;;;;;3.13;1.88;;;21.50;99.90;;;;;;5095457;28;20283;-73
2023/09/22 11:03:23;;;;;;;3.13;1.60;;;21.90;99.90;;;;;;5090619;28;20595;-72
2023/09/22 11:06:10;;;;;;;1.35;1.25;;;21.90;99.90;;;;;;5094992;28;20195;-73
2023/09/22 11:08:50;;;;;;;4.40;1.58;;;21.20;1.00;;;;;;5094287;28;20176;-72
2023/09/22 11:11:17;;;;;;;5.38;1.65;;;20.60;99.90;;;;;;5094891;28;20314;-72
2023/09/22 11:13:53;;;;;;;5.13;2.20;;;20.60;1.00;;;;;;5095401;28;20200;-72
2023/09/22 11:16:20;;;;;;;3.10;1.70;;;20.50;1.00;;;;;;5094846;28;20316;-72
2023/09/22 11:18:46;;;;;;;2.45;1.30;;;20.10;1.00;;;;;;5094738;28;20192;-71
2023/09/22 11:21:13;;;;;;;2.50;1.40;;;20.00;1.00;;;;;;5094414;28;20266;-72
2023/09/22 11:23:39;;;;;;;6.03;1.40;;;19.90;1.00;;;;;;5094793;28;20172;-72
2023/09/22 11:26:08;;;;;;;2.97;1.50;;;19.70;1.00;;;;;;5095018;28;20164;-73
2023/09/22 11:28:36;;;;;;;2.50;1.30;;;19.50;1.00;;;;;;5094584;28;20168;-73
2023/09/22 11:31:20;;;;;;;3.03;1.65;;;19.30;1.00;;;;;;5094953;28;20168;-71
2023/09/22 11:33:59;;;;;;;2.75;1.23;;;19.50;1.00;;;;;;5094371;28;20247;-72
2023/09/22 11:36:26;;;;;;;4.65;1.70;;;19.50;1.00;;;;;;5094609;28;20179;-72
2023/09/22 11:38:55;;;;;;;4.20;1.73;;;19.30;1.00;;;;;;5094723;28;20706;-71
2023/09/22 11:41:23;;;;;;;5.82;2.22;;;19.30;1.00;;;;;;5094257;28;20207;-73
2023/09/22 11:43:51;;;;;;;9.57;2.00;;;19.10;1.00;;;;;;5094383;28;20198;-73
2023/09/22 11:46:28;;;;;;;3.15;1.48;;;19.10;1.00;;;;;;5094523;28;20174;-73
2023/09/22 11:49:05;;;;;;;4.68;2.03;;;19.20;1.00;;;;;;5094324;28;20167;-71
2023/09/22 11:51:57;;;;;;;3.72;1.35;;;19.40;1.00;;;;;;5094766;28;20176;-73
2023/09/22 11:54:31;;;;;;;4.85;1.45;;;19.20;1.00;;;;;;5093725;28;20236;-72
2023/09/22 11:56:58;;;;;;;1.92;1.13;;;18.80;1.00;;;;;;5094182;28;20167;-72
2023/09/22 11:59:31;;;;;;;3.42;1.30;;;18.70;1.00;;;;;;5093925;28;20254;-72
2023/09/22 12:01:57;;;;;;;4.20;1.70;;;18.40;1.00;;;;;;5093364;28;20204;-73
2023/09/22 12:04:23;;;;;;;4.70;1.50;;;18.50;1.00;;;;;;5094638;28;20179;-73
2023/09/22 12:06:49;;;;;;;1.40;1.20;;;18.70;1.00;;;;;;5094156;28;20175;-72
2023/09/22 12:09:15;;;;;;;6.22;2.13;;;18.80;1.00;;;;;;5093561;28;20543;-71
2023/09/22 12:11:42;;;;;;;6.70;2.30;;;19.10;1.00;;;;;;5094364;28;20179;-72
2023/09/22 12:14:08;;;;;;;8.40;1.80;;;19.60;1.00;;;;;;5094303;28;20164;-72
2023/09/22 12:16:34;;;;;;;3.58;1.60;;;20.10;1.00;;;;;;5093389;28;20176;-73
2023/09/22 12:19:00;;;;;;;3.35;1.35;;;20.20;1.00;;;;;;5093760;28;20202;-72
2023/09/22 12:21:27;;;;;;;5.22;3.92;;;20.20;1.00;;;;;;5093329;28;20264;-73
2023/09/22 12:23:53;;;;;;;4.18;1.80;;;20.00;1.00;;;;;;5093500;28;20163;-74
2023/09/22 12:26:20;;;;;;;2.35;1.30;;;20.20;1.00;;;;;;5093919;28;20531;-72
2023/09/22 12:28:46;;;;;;;1.63;1.30;;;20.10;1.00;;;;;;5093752;28;20168;-73
2023/09/22 12:31:12;;;;;;;1.20;1.10;;;20.40;1.00;;;;;;5091670;28;20579;-73
2023/09/22 12:33:38;;;;;;;3.83;1.38;;;20.00;1.00;;;;;;5093688;28;20164;-73
2023/09/22 12:36:04;;;;;;;1.95;1.45;;;19.60;1.00;;;;;;5093444;28;20172;-72
2023/09/22 12:38:29;;;;;;;3.15;1.58;;;19.70;1.00;;;;;;5093212;28;20631;-74
2023/09/22 12:40:57;;;;;;;2.60;1.60;;;19.90;1.00;;;;;;5093488;28;20207;-73
2023/09/22 12:43:23;;;;;;;6.47;1.60;;;20.20;1.00;;;;;;5093394;28;20682;-75
2023/09/22 12:45:49;;;;;;;1.77;1.00;;;20.50;1.00;;;;;;5092752;28;20179;-74
2023/09/22 12:48:15;;;;;;;5.38;1.30;;;20.10;1.00;;;;;;5093220;28;20534;-73
2023/09/22 12:50:40;;;;;;;8.25;4.32;;;20.10;1.00;;;;;;5093678;28;20179;-72
2023/09/22 12:53:06;;;;;;;2.10;1.10;;;20.10;1.00;;;;;;5093079;28;20179;-73
2023/09/22 12:55:36;;;;;;;2.47;1.70;;;19.90;1.00;;;;;;5092830;28;20210;-73
2023/09/22 12:58:02;;;;;;;3.38;1.52;;;19.50;1.00;;;;;;5093308;28;20184;-73